createdAt,value
2022-08-25T00:00:46.801Z,7.20
2022-08-25T00:03:18.596Z,7.07
2022-08-25T00:05:51.430Z,6.90
2022-08-25T00:08:23.224Z,6.80
2022-08-25T00:11:02.866Z,7.10
2022-08-25T00:13:35.396Z,6.77
2022-08-25T00:16:07.349Z,6.07
2022-08-25T00:18:40.857Z,6.00
2022-08-25T00:21:14.138Z,6.97
2022-08-25T00:23:46.590Z,7.43
2022-08-25T00:26:18.777Z,7.40
2022-08-25T00:28:50.517Z,6.23
2022-08-25T00:31:38.346Z,7.37
2022-08-25T00:34:17.919Z,7.50
2022-08-25T00:36:53.435Z,7.00
2022-08-25T00:39:25.900Z,7.23
2022-08-25T00:41:57.967Z,7.03
2022-08-25T00:44:34.101Z,7.07
2022-08-25T00:47:06.882Z,8.20
2022-08-25T00:49:58.816Z,7.37
2022-08-25T00:52:45.100Z,6.90
2022-08-25T00:55:39.910Z,7.73
2022-08-25T00:58:16.910Z,7.00
2022-08-25T01:00:50.862Z,7.77
2022-08-25T01:03:31.577Z,7.87
2022-08-25T01:06:05.589Z,8.37
2022-08-25T01:08:37.802Z,7.67
2022-08-25T01:11:11.794Z,9.10
2022-08-25T01:13:54.163Z,8.67
2022-08-25T01:16:26.348Z,8.20
2022-08-25T01:19:00.398Z,8.33
2022-08-25T01:21:39.812Z,7.67
2022-08-25T01:24:19.679Z,8.63
2022-08-25T01:26:51.569Z,8.50
2022-08-25T01:29:25.629Z,8.33
2022-08-25T01:32:00.338Z,8.07
2022-08-25T01:34:34.778Z,8.90
2022-08-25T01:37:07.232Z,8.03
2022-08-25T01:39:39.051Z,7.67
2022-08-25T01:42:39.222Z,7.60
2022-08-25T01:45:11.202Z,7.97
2022-08-25T01:47:42.997Z,8.60
2022-08-25T01:50:14.777Z,9.93
2022-08-25T01:53:03.089Z,9.73
2022-08-25T01:55:51.640Z,8.90
2022-08-25T01:58:29.416Z,10.67
2022-08-25T02:01:05.190Z,10.30
2022-08-25T02:03:42.057Z,9.43
2022-08-25T02:06:16.984Z,11.67
2022-08-25T02:08:53.979Z,10.03
2022-08-25T02:11:26.140Z,9.23
2022-08-25T02:13:59.154Z,8.70
2022-08-25T02:16:34.578Z,9.33
2022-08-25T02:19:08.823Z,8.93
2022-08-25T02:21:40.610Z,9.40
2022-08-25T02:24:13.027Z,9.67
2022-08-25T02:26:45.127Z,8.23
2022-08-25T02:29:17.187Z,7.93
2022-08-25T02:31:48.953Z,8.30
2022-08-25T02:34:20.808Z,9.63
2022-08-25T02:36:52.572Z,10.57
2022-08-25T02:39:24.464Z,8.57
2022-08-25T02:41:56.226Z,8.77
2022-08-25T02:44:27.946Z,9.03
2022-08-25T02:47:00.319Z,9.67
2022-08-25T02:49:32.149Z,9.10
2022-08-25T02:52:03.997Z,10.13
2022-08-25T02:54:36.361Z,9.03
2022-08-25T02:57:08.112Z,9.03
2022-08-25T02:59:39.912Z,9.97
2022-08-25T03:02:11.658Z,10.20
2022-08-25T03:04:43.954Z,10.50
2022-08-25T03:07:15.998Z,9.27
2022-08-25T03:09:49.754Z,8.90
2022-08-25T03:12:22.480Z,8.67
2022-08-25T03:14:54.504Z,10.00
2022-08-25T03:17:26.639Z,9.53
2022-08-25T03:19:58.449Z,10.47
2022-08-25T03:22:30.357Z,11.00
2022-08-25T03:25:24.165Z,10.07
2022-08-25T03:27:56.198Z,10.87
2022-08-25T03:30:28.647Z,9.07
2022-08-25T03:33:00.416Z,9.73
2022-08-25T03:35:32.157Z,10.60
2022-08-25T03:38:05.499Z,12.53
2022-08-25T03:40:38.220Z,10.80
2022-08-25T03:43:09.972Z,10.77
2022-08-25T03:45:43.460Z,9.47
2022-08-25T03:48:16.560Z,10.57
2022-08-25T03:50:51.981Z,10.47
2022-08-25T03:53:24.362Z,10.30
2022-08-25T03:55:57.308Z,10.40
2022-08-25T03:58:29.033Z,11.07
2022-08-25T04:01:00.871Z,10.47
2022-08-25T04:03:32.648Z,10.57
2022-08-25T04:06:06.020Z,10.67
2022-08-25T04:08:38.448Z,10.23
2022-08-25T04:11:13.106Z,10.47
2022-08-25T04:13:46.559Z,11.37
2022-08-25T04:16:22.893Z,10.60
2022-08-25T04:18:55.661Z,11.17
2022-08-25T04:21:28.009Z,11.27
2022-08-25T04:23:59.759Z,11.13
2022-08-25T04:26:39.114Z,10.77
2022-08-25T04:29:12.884Z,11.60
2022-08-25T04:31:50.244Z,10.93
2022-08-25T04:34:29.555Z,11.33
2022-08-25T04:37:06.524Z,13.37
2022-08-25T04:39:38.326Z,11.47
2022-08-25T04:42:10.075Z,12.57
2022-08-25T04:44:42.005Z,13.33
2022-08-25T04:47:13.743Z,11.90
2022-08-25T04:49:45.472Z,15.00
2022-08-25T04:52:17.287Z,13.40
2022-08-25T04:54:49.063Z,11.83
2022-08-25T04:57:20.788Z,11.87
2022-08-25T04:59:52.620Z,13.37
2022-08-25T05:02:25.275Z,13.13
2022-08-25T05:04:57.522Z,12.70
2022-08-25T05:07:29.260Z,11.73
2022-08-25T05:10:00.982Z,11.90
2022-08-25T05:12:34.263Z,11.53
2022-08-25T05:15:27.856Z,11.67
2022-08-25T05:18:00.004Z,12.90
2022-08-25T05:20:32.191Z,10.70
2022-08-25T05:23:04.665Z,11.50
2022-08-25T05:25:37.824Z,10.90
2022-08-25T05:28:09.921Z,10.13
2022-08-25T05:30:42.978Z,9.53
2022-08-25T05:33:16.130Z,10.93
2022-08-25T05:35:47.866Z,10.30
2022-08-25T05:38:19.645Z,10.73
2022-08-25T05:40:59.194Z,9.47
2022-08-25T05:43:31.984Z,9.23
2022-08-25T05:46:04.182Z,9.20
2022-08-25T05:48:36.618Z,9.33
2022-08-25T05:51:10.330Z,9.60
2022-08-25T05:53:47.282Z,8.87
2022-08-25T05:56:19.819Z,9.77
2022-08-25T05:58:51.574Z,9.53
2022-08-25T06:01:46.214Z,9.47
2022-08-25T06:04:18.188Z,10.87
2022-08-25T06:06:53.398Z,9.77
2022-08-25T06:09:25.487Z,10.77
2022-08-25T06:11:57.281Z,8.97
2022-08-25T06:14:29.003Z,9.43
2022-08-25T06:17:01.359Z,10.17
2022-08-25T06:19:33.282Z,9.13
2022-08-25T06:22:05.106Z,11.47
2022-08-25T06:24:37.051Z,10.70
2022-08-25T06:27:08.978Z,11.73
2022-08-25T06:29:40.781Z,10.43
2022-08-25T06:32:13.733Z,10.23
2022-08-25T06:34:45.513Z,9.37
2022-08-25T06:37:17.275Z,10.30
2022-08-25T06:39:49.036Z,9.53
2022-08-25T06:42:20.887Z,8.90
2022-08-25T06:44:52.638Z,8.97
2022-08-25T06:47:24.462Z,9.57
2022-08-25T06:49:56.316Z,9.10
2022-08-25T06:52:29.499Z,10.43
2022-08-25T06:55:01.826Z,10.47
2022-08-25T06:57:35.836Z,9.07
2022-08-25T07:00:10.773Z,10.77
2022-08-25T07:02:44.236Z,10.40
2022-08-25T07:05:26.927Z,10.17
2022-08-25T07:08:05.606Z,11.43
2022-08-25T07:10:37.429Z,10.60
2022-08-25T07:13:09.431Z,10.63
2022-08-25T07:15:42.626Z,12.40
2022-08-25T07:18:16.817Z,9.33
2022-08-25T07:20:48.783Z,10.67
2022-08-25T07:23:20.956Z,9.07
2022-08-25T07:25:54.088Z,9.83
2022-08-25T07:28:25.823Z,10.10
2022-08-25T07:31:00.946Z,13.70
2022-08-25T07:33:33.119Z,9.50
2022-08-25T07:36:05.979Z,10.43
2022-08-25T07:38:37.845Z,10.27
2022-08-25T07:41:09.591Z,9.10
2022-08-25T07:43:41.766Z,7.43
2022-08-25T07:46:13.546Z,7.83
2022-08-25T07:48:45.493Z,7.27
2022-08-25T07:54:02.113Z,7.33
2022-08-25T07:56:35.539Z,7.97
2022-08-25T07:59:08.511Z,7.83
2022-08-25T08:01:44.803Z,7.40
2022-08-25T08:04:16.591Z,9.13
2022-08-25T08:06:48.358Z,10.17
2022-08-25T08:09:20.137Z,8.80
2022-08-25T08:11:54.001Z,10.37
2022-08-25T08:14:26.277Z,11.43
2022-08-25T08:16:58.020Z,7.03
2022-08-25T08:19:30.892Z,9.93
2022-08-25T08:22:04.140Z,7.97
2022-08-25T08:24:44.864Z,11.57
2022-08-25T08:27:28.347Z,9.77
2022-08-25T08:30:00.446Z,15.10
2022-08-25T08:32:46.477Z,13.13
2022-08-25T08:35:24.491Z,11.93
2022-08-25T08:37:56.460Z,13.60
2022-08-25T08:40:31.062Z,12.07
2022-08-25T08:43:14.579Z,10.30
2022-08-25T08:45:53.042Z,14.52
2022-08-25T08:48:51.931Z,13.03
2022-08-25T08:51:39.800Z,10.63
2022-08-25T08:54:20.403Z,6.67
2022-08-25T08:57:08.471Z,6.93
2022-08-25T08:59:53.335Z,7.93
2022-08-25T09:02:39.468Z,7.33
2022-08-25T09:05:26.389Z,8.23
2022-08-25T09:08:07.497Z,8.40
2022-08-25T09:10:50.625Z,11.67
2022-08-25T09:13:44.476Z,7.30
2022-08-25T09:16:56.732Z,7.37
2022-08-25T09:19:43.490Z,7.10
2022-08-25T09:22:44.207Z,7.93
2022-08-25T09:25:53.091Z,8.70
2022-08-25T09:28:53.295Z,9.17
2022-08-25T09:31:38.679Z,7.87
2022-08-25T09:34:21.170Z,7.93
2022-08-25T09:36:53.532Z,9.67
2022-08-25T09:39:25.370Z,8.33
2022-08-25T09:42:00.253Z,9.80
2022-08-25T09:44:50.231Z,10.03
2022-08-25T09:47:25.402Z,10.00
2022-08-25T09:50:04.508Z,8.90
2022-08-25T09:52:41.467Z,8.00
2022-08-25T09:55:16.664Z,7.43
2022-08-25T09:57:55.808Z,7.93
2022-08-25T10:00:34.362Z,6.95
2022-08-25T10:03:24.898Z,7.43
2022-08-25T10:06:13.662Z,6.83
2022-08-25T10:08:45.538Z,6.60
2022-08-25T10:11:43.620Z,6.43
2022-08-25T10:14:17.676Z,7.55
2022-08-25T10:16:50.369Z,6.70
2022-08-25T10:19:22.092Z,6.83
2022-08-25T10:22:05.415Z,7.20
2022-08-25T10:24:38.679Z,8.20
2022-08-25T10:27:35.291Z,6.78
2022-08-25T10:30:10.942Z,7.20
2022-08-25T10:33:20.354Z,8.43
2022-08-25T10:36:07.259Z,8.77
2022-08-25T10:38:53.828Z,8.48
2022-08-25T10:41:44.345Z,7.13
2022-08-25T10:44:52.232Z,7.78
2022-08-25T10:47:42.759Z,8.18
2022-08-25T10:50:21.525Z,10.38
2022-08-25T10:53:14.647Z,8.43
2022-08-25T10:56:10.815Z,8.40
2022-08-25T10:58:52.172Z,7.38
2022-08-25T11:01:43.949Z,6.90
2022-08-25T11:04:42.710Z,8.25
2022-08-25T11:07:26.871Z,6.97
2022-08-25T11:10:05.721Z,7.43
2022-08-25T11:12:59.728Z,8.15
2022-08-25T11:15:50.280Z,8.07
2022-08-25T11:18:33.295Z,7.82
2022-08-25T11:21:28.566Z,7.80
2022-08-25T11:24:20.723Z,8.93
2022-08-25T11:26:56.390Z,6.85
2022-08-25T11:29:33.699Z,10.95
2022-08-25T11:32:05.784Z,10.73
2022-08-25T11:34:42.426Z,10.27
2022-08-25T11:37:25.429Z,6.47
2022-08-25T11:40:22.435Z,11.17
2022-08-25T11:43:29.363Z,11.83
2022-08-25T11:46:17.629Z,11.70
2022-08-25T11:49:29.341Z,19.83
2022-08-25T11:52:02.796Z,11.05
2022-08-25T11:54:39.287Z,17.75
2022-08-25T11:57:13.496Z,11.80
2022-08-25T11:59:54.851Z,11.70
2022-08-25T12:02:40.978Z,9.77
2022-08-25T12:05:17.160Z,14.77
2022-08-25T12:08:18.077Z,13.93
2022-08-25T12:11:10.837Z,15.52
2022-08-25T12:13:49.039Z,14.57
2022-08-25T12:17:00.249Z,19.30
2022-08-25T12:19:50.529Z,18.13
2022-08-25T12:22:22.249Z,16.65
2022-08-25T12:25:11.523Z,12.30
2022-08-25T12:28:26.761Z,14.50
2022-08-25T12:31:05.547Z,18.85
2022-08-25T12:33:52.438Z,13.55
2022-08-25T12:36:31.375Z,16.17
2022-08-25T12:39:28.712Z,10.52
2022-08-25T12:42:07.305Z,12.20
2022-08-25T12:44:43.933Z,13.68
2022-08-25T12:47:26.977Z,8.48
2022-08-25T12:50:29.800Z,13.27
2022-08-25T12:53:15.831Z,12.55
2022-08-25T12:55:57.017Z,14.13
2022-08-25T12:59:08.675Z,17.15
2022-08-25T13:02:03.107Z,14.57
2022-08-25T13:04:54.655Z,11.65
2022-08-25T13:07:58.456Z,13.20
2022-08-25T13:10:51.588Z,15.63
2022-08-25T13:13:39.569Z,11.52
2022-08-25T13:16:21.200Z,16.70
2022-08-25T13:18:58.896Z,11.93
2022-08-25T13:21:39.720Z,7.82
2022-08-25T13:24:25.569Z,9.90
2022-08-25T13:27:01.863Z,11.50
2022-08-25T13:29:50.022Z,13.13
2022-08-25T13:32:32.468Z,12.20
2022-08-25T13:35:20.865Z,13.00
2022-08-25T13:37:53.906Z,9.27
2022-08-25T13:40:29.240Z,15.45
2022-08-25T13:43:07.794Z,14.65
2022-08-25T13:45:45.727Z,12.50
2022-08-25T13:48:36.351Z,13.90
2022-08-25T13:51:21.566Z,10.00
2022-08-25T13:54:00.149Z,13.07
2022-08-25T13:56:40.576Z,12.50
2022-08-25T13:59:25.778Z,11.75
2022-08-25T14:01:59.760Z,15.75
2022-08-25T14:04:51.409Z,13.63
2022-08-25T14:07:25.429Z,12.85
2022-08-25T14:10:09.387Z,9.18
2022-08-25T14:12:45.117Z,9.60
2022-08-25T14:15:16.985Z,12.32
2022-08-25T14:18:04.210Z,11.95
2022-08-25T14:20:37.743Z,14.82
2022-08-25T14:23:16.138Z,12.45
2022-08-25T14:25:52.581Z,13.52
2022-08-25T14:28:27.146Z,13.82
2022-08-25T14:31:13.573Z,16.95
2022-08-25T14:33:57.107Z,15.77
2022-08-25T14:36:30.535Z,16.05
2022-08-25T14:39:08.705Z,11.15
2022-08-25T14:41:45.316Z,14.05
2022-08-25T14:44:23.051Z,14.25
2022-08-25T14:46:56.400Z,15.23
2022-08-25T14:49:33.822Z,13.30
2022-08-25T14:52:20.235Z,11.07
2022-08-25T14:54:54.819Z,12.38
2022-08-25T14:57:26.653Z,17.55
2022-08-25T14:59:58.557Z,9.68
2022-08-25T15:02:35.272Z,11.10
2022-08-25T15:05:12.455Z,12.73
2022-08-25T15:08:03.174Z,11.13
2022-08-25T15:10:35.025Z,14.13
2022-08-25T15:13:06.875Z,9.88
2022-08-25T15:15:52.679Z,16.38
2022-08-25T15:18:25.886Z,15.90
2022-08-25T15:20:57.657Z,11.27
2022-08-25T15:23:29.427Z,10.90
2022-08-25T15:26:01.454Z,16.75
2022-08-25T15:28:33.187Z,14.88
2022-08-25T15:31:05.112Z,13.13
2022-08-25T15:33:40.621Z,14.23
2022-08-25T15:36:18.392Z,13.60
2022-08-25T15:38:53.234Z,16.97
2022-08-25T15:41:27.180Z,16.27
2022-08-25T15:43:59.658Z,15.10
2022-08-25T15:46:32.202Z,12.43
2022-08-25T15:49:04.604Z,19.00
2022-08-25T15:51:39.606Z,10.97
2022-08-25T15:54:14.185Z,15.50
2022-08-25T15:56:46.247Z,11.93
2022-08-25T15:59:18.016Z,17.20
2022-08-25T16:01:54.078Z,9.70
2022-08-25T16:04:27.778Z,11.93
2022-08-25T16:07:00.794Z,11.10
2022-08-25T16:09:32.991Z,10.40
2022-08-25T16:12:06.759Z,11.33
2022-08-25T16:14:40.595Z,14.00
2022-08-25T16:17:14.080Z,14.63
2022-08-25T16:19:46.744Z,14.20
2022-08-25T16:22:18.487Z,10.80
2022-08-25T16:24:50.365Z,13.33
2022-08-25T16:27:22.144Z,16.00
2022-08-25T16:29:54.184Z,10.93
2022-08-25T16:32:25.933Z,10.23
2022-08-25T16:34:58.395Z,8.25
2022-08-25T16:37:30.370Z,14.63
2022-08-25T16:40:03.401Z,11.97
2022-08-25T16:42:35.237Z,13.43
2022-08-25T16:45:07.259Z,16.20
2022-08-25T16:47:39.676Z,7.93
2022-08-25T16:50:15.503Z,10.23
2022-08-25T16:53:08.074Z,12.93
2022-08-25T16:55:40.045Z,12.70
2022-08-25T16:58:13.457Z,9.87
2022-08-25T17:00:45.580Z,11.97
2022-08-25T17:03:17.378Z,9.97
2022-08-25T17:05:49.405Z,11.27
2022-08-25T17:08:30.846Z,12.33
2022-08-25T17:11:08.157Z,11.33
2022-08-25T17:13:44.570Z,8.90
2022-08-25T17:16:18.110Z,11.03
2022-08-25T17:18:50.359Z,13.40
2022-08-25T17:21:24.418Z,13.63
2022-08-25T17:23:57.963Z,16.53
2022-08-25T17:26:30.799Z,14.50
2022-08-25T17:29:03.515Z,11.83
2022-08-25T17:31:39.625Z,12.80
2022-08-25T17:34:16.156Z,13.83
2022-08-25T17:36:48.390Z,14.73
2022-08-25T17:39:22.247Z,14.03
2022-08-25T17:41:54.639Z,14.67
2022-08-25T17:44:26.434Z,11.03
2022-08-25T17:46:58.991Z,12.10
2022-08-25T17:49:30.740Z,12.97
2022-08-25T17:52:02.951Z,15.73
2022-08-25T17:54:34.686Z,11.20
2022-08-25T17:57:06.827Z,14.40
2022-08-25T17:59:40.402Z,15.57
2022-08-25T18:02:12.398Z,10.83
2022-08-25T18:04:44.173Z,12.40
2022-08-25T18:07:15.970Z,18.90
2022-08-25T18:09:48.953Z,12.77
2022-08-25T18:12:22.115Z,14.20
2022-08-25T18:14:59.416Z,15.70
2022-08-25T18:17:32.086Z,11.33
2022-08-25T18:20:08.141Z,14.40
2022-08-25T18:22:42.130Z,12.20
2022-08-25T18:25:16.810Z,14.03
2022-08-25T18:27:48.864Z,14.57
2022-08-25T18:30:20.923Z,15.20
2022-08-25T18:32:52.696Z,16.63
2022-08-25T18:35:27.055Z,10.20
2022-08-25T18:38:17.727Z,17.17
2022-08-25T18:41:01.474Z,14.87
2022-08-25T18:43:34.955Z,18.50
2022-08-25T18:46:06.886Z,14.90
2022-08-25T18:48:40.122Z,15.50
2022-08-25T18:51:14.055Z,15.63
2022-08-25T18:53:49.646Z,13.50
2022-08-25T18:56:22.651Z,14.53
2022-08-25T18:58:54.391Z,11.70
2022-08-25T19:01:26.342Z,13.87
2022-08-25T19:04:00.288Z,13.47
2022-08-25T19:06:32.371Z,12.10
2022-08-25T19:09:04.495Z,12.97
2022-08-25T19:11:36.219Z,16.90
2022-08-25T19:14:12.487Z,19.07
2022-08-25T19:16:44.483Z,17.33
2022-08-25T19:19:16.477Z,13.93
2022-08-25T19:21:48.519Z,14.10
2022-08-25T19:24:22.760Z,17.87
2022-08-25T19:26:55.645Z,10.97
2022-08-25T19:29:30.416Z,12.50
2022-08-25T19:32:02.493Z,14.67
2022-08-25T19:34:39.193Z,15.70
2022-08-25T19:37:14.338Z,16.03
2022-08-25T19:39:52.786Z,13.23
2022-08-25T19:42:35.311Z,19.70
2022-08-25T19:45:10.903Z,15.30
2022-08-25T19:47:42.821Z,10.57
2022-08-25T19:50:16.959Z,12.07
2022-08-25T19:52:49.785Z,10.93
2022-08-25T19:55:22.256Z,11.27
2022-08-25T19:57:54.604Z,10.77
2022-08-25T20:00:32.650Z,11.37
2022-08-25T20:03:05.006Z,12.93
2022-08-25T20:05:39.312Z,16.67
2022-08-25T20:08:11.052Z,12.13
2022-08-25T20:10:42.874Z,16.07
2022-08-25T20:13:14.789Z,12.13
2022-08-25T20:15:46.610Z,14.20
2022-08-25T20:18:18.346Z,14.13
2022-08-25T20:20:50.544Z,9.50
2022-08-25T20:23:40.657Z,10.80
2022-08-25T20:26:12.436Z,14.00
2022-08-25T20:28:44.252Z,14.20
2022-08-25T20:31:16.135Z,12.13
2022-08-25T20:33:47.890Z,11.50
2022-08-25T20:36:21.007Z,16.07
2022-08-25T20:38:52.907Z,12.33
2022-08-25T20:41:24.683Z,10.50
2022-08-25T20:43:57.213Z,11.93
2022-08-25T20:46:29.069Z,12.40
2022-08-25T20:49:01.509Z,20.63
2022-08-25T20:51:34.711Z,17.23
2022-08-25T20:54:06.795Z,17.20
2022-08-25T20:56:38.621Z,12.97
2022-08-25T20:59:11.665Z,22.83
2022-08-25T21:01:43.644Z,17.60
2022-08-25T21:04:17.600Z,14.60
2022-08-25T21:06:51.722Z,14.73
2022-08-25T21:09:24.897Z,16.30
2022-08-25T21:11:58.953Z,13.43
2022-08-25T21:14:30.811Z,13.30
2022-08-25T21:17:04.232Z,12.30
2022-08-25T21:19:36.909Z,14.03
2022-08-25T21:22:11.896Z,15.60
2022-08-25T21:24:44.688Z,15.87
2022-08-25T21:27:16.552Z,12.70
2022-08-25T21:29:54.440Z,12.30
2022-08-25T21:32:27.098Z,14.83
2022-08-25T21:34:58.890Z,17.37
2022-08-25T21:37:30.678Z,15.63
2022-08-25T21:40:02.609Z,14.57
2022-08-25T21:42:39.002Z,18.10
2022-08-25T21:45:11.660Z,14.60
2022-08-25T21:47:44.838Z,13.97
2022-08-25T21:50:16.679Z,11.33
2022-08-25T21:52:48.442Z,13.83
2022-08-25T21:55:26.747Z,13.27
2022-08-25T21:57:58.620Z,15.47
2022-08-25T22:00:30.637Z,13.63
2022-08-25T22:03:02.892Z,12.10
2022-08-25T22:05:36.962Z,15.47
2022-08-25T22:08:09.260Z,13.13
2022-08-25T22:10:44.768Z,13.20
2022-08-25T22:13:16.562Z,20.60
2022-08-25T22:15:52.078Z,14.13
2022-08-25T22:18:24.745Z,12.57
2022-08-25T22:20:57.890Z,14.63
2022-08-25T22:23:31.674Z,12.87
2022-08-25T22:26:15.449Z,11.27
2022-08-25T22:28:47.336Z,12.53
2022-08-25T22:31:20.640Z,12.77
2022-08-25T22:33:52.857Z,15.40
2022-08-25T22:36:30.785Z,10.70
2022-08-25T22:39:04.768Z,16.50
2022-08-25T22:41:37.136Z,13.03
2022-08-25T22:44:13.625Z,13.67
2022-08-25T22:46:45.380Z,14.53
2022-08-25T22:49:17.563Z,20.83
2022-08-25T22:51:49.945Z,12.73
2022-08-25T22:54:22.886Z,14.63
2022-08-25T22:56:55.695Z,17.87
2022-08-25T22:59:28.301Z,15.00
2022-08-25T23:02:00.738Z,13.60
2022-08-25T23:04:32.613Z,18.27
2022-08-25T23:07:05.350Z,11.37
2022-08-25T23:09:38.350Z,16.80
2022-08-25T23:12:10.210Z,14.03
2022-08-25T23:14:44.370Z,12.53
2022-08-25T23:17:16.248Z,13.13
2022-08-25T23:19:48.401Z,15.43
2022-08-25T23:22:20.174Z,17.20
2022-08-25T23:24:53.515Z,13.10
2022-08-25T23:27:25.334Z,11.93
2022-08-25T23:29:57.076Z,13.13
2022-08-25T23:32:28.799Z,13.87
2022-08-25T23:35:00.700Z,14.47
2022-08-25T23:37:33.373Z,14.97
2022-08-25T23:40:06.887Z,17.67
2022-08-25T23:42:38.955Z,13.50
2022-08-25T23:45:14.852Z,13.07
2022-08-25T23:47:46.621Z,13.37
2022-08-25T23:50:22.127Z,14.73
2022-08-25T23:52:54.159Z,19.30
2022-08-25T23:55:26.630Z,15.17
2022-08-25T23:58:00.703Z,17.43
